Time;durP1;ratioP1;P1;durP2;ratioP2;P2;SDS_P1;SDS_P2;PMS_P1;PMS_P2;Temp;Humidity;BMP_temperature;BMP_pressure;BME280_temperature;BME280_humidity;BME280_pressure;Samples;Min_cycle;Max_cycle;Signal;HPM_P1;HPM_P2
2021/01/16 05:45:12;;;;;;;15.15;8.60;;;;;;;;;;6247335;22;884952;-81
2021/01/16 05:47:41;;;;;;;16.00;9.50;;;;;;;;;;6286780;22;20514;-82
2021/01/16 05:50:09;;;;;;;16.25;8.73;;;;;;;;;;6315019;22;20003;-82
2021/01/16 05:52:35;;;;;;;17.73;9.80;;;;;;;;;;6317464;22;20003;-83
2021/01/16 05:55:01;;;;;;;14.48;8.98;;;;;;;;;;6286874;22;20057;-83
2021/01/16 05:57:27;;;;;;;15.50;8.85;;;;;;;;;;6257677;22;20055;-82
2021/01/16 06:00:00;;;;;;;17.42;8.65;;;;;;;;;;6257132;22;20015;-83
2021/01/16 06:02:30;;;;;;;20.65;8.52;;;;;;;;;;6256260;22;20002;-82
2021/01/16 06:04:57;;;;;;;15.40;8.32;;;;;;;;;;6282881;22;20026;-83
2021/01/16 06:09:41;;;;;;;15.63;8.63;;;;;;;;;;5121280;27;20395;-81
2021/01/16 06:12:12;;;;;;;15.02;8.15;;;;;;;;;;5112751;28;20027;-82
2021/01/16 06:14:42;;;;;;;17.00;9.07;;;;;;;;;;5114387;28;20054;-82
2021/01/16 06:17:10;;;;;;;17.73;9.68;;;;;;;;;;5115803;28;20610;-80
2021/01/16 06:19:37;;;;;;;14.63;7.80;;;;;;;;;;5113766;28;20029;-81
2021/01/16 06:22:09;;;;;;;15.93;7.75;;;;;;;;;;5122247;28;20094;-81
2021/01/16 06:24:36;;;;;;;16.63;8.93;;;;;;;;;;5113214;28;20028;-80
2021/01/16 06:27:02;;;;;;;16.23;9.30;;;;;;;;;;5120363;28;20047;-81
2021/01/16 06:29:36;;;;;;;21.13;10.43;;;;;;;;;;5119174;28;20027;-81
2021/01/16 06:32:04;;;;;;;24.55;11.10;;;;;;;;;;5110308;28;20375;-79
2021/01/16 06:34:32;;;;;;;20.17;9.98;;;;;;;;;;5102994;28;20032;-80
2021/01/16 06:37:05;;;;;;;21.83;11.93;;;;;;;;;;5103192;28;20024;-80
2021/01/16 06:39:34;;;;;;;34.33;13.65;;;;;;;;;;5097189;28;20025;-80
2021/01/16 06:42:04;;;;;;;25.77;14.05;;;;;;;;;;5105002;28;20034;-79
2021/01/16 06:44:30;;;;;;;24.63;12.50;;;;;;;;;;5107249;28;20373;-80
2021/01/16 06:46:59;;;;;;;19.75;10.80;;;;;;;;;;5107985;28;20048;-80
2021/01/16 06:49:28;;;;;;;21.38;10.70;;;;;;;;;;5109242;28;20027;-81
2021/01/16 06:51:56;;;;;;;19.98;10.55;;;;;;;;;;5104164;28;20027;-80
2021/01/16 06:54:23;;;;;;;29.02;13.52;;;;;;;;;;5105968;28;20065;-80
2021/01/16 06:56:59;;;;;;;26.20;12.23;;;;;;;;;;5115353;28;20037;-80
2021/01/16 06:59:26;;;;;;;26.42;13.20;;;;;;;;;;5111327;28;20119;-80
2021/01/16 07:01:52;;;;;;;30.63;15.43;;;;;;;;;;5110767;28;20023;-80
2021/01/16 07:04:20;;;;;;;23.80;13.23;;;;;;;;;;5114829;28;20023;-80
2021/01/16 07:06:46;;;;;;;25.70;13.05;;;;;;;;;;5106597;28;20029;-81
2021/01/16 07:09:17;;;;;;;25.38;12.18;;;;;;;;;;5112804;28;20047;-81
2021/01/16 07:11:43;;;;;;;25.05;11.45;;;;;;;;;;5112275;28;20028;-80
2021/01/16 07:14:10;;;;;;;23.80;12.52;;;;;;;;;;5109104;28;20016;-81
2021/01/16 07:16:36;;;;;;;29.65;13.50;;;;;;;;;;5106567;28;20032;-80
2021/01/16 07:19:03;;;;;;;22.05;11.75;;;;;;;;;;5099914;28;20028;-81
2021/01/16 07:21:29;;;;;;;21.17;12.40;;;;;;;;;;5085437;28;20039;-82
2021/01/16 07:23:55;;;;;;;22.02;11.25;;;;;;;;;;5088666;28;20107;-81
2021/01/16 07:26:22;;;;;;;22.15;11.70;;;;;;;;;;5090719;28;20088;-82
2021/01/16 07:28:50;;;;;;;24.10;12.50;;;;;;;;;;5104372;28;20628;-80
2021/01/16 07:31:16;;;;;;;23.45;11.27;;;;;;;;;;5090212;28;20024;-80
2021/01/16 07:33:44;;;;;;;23.63;12.27;;;;;;;;;;5095492;28;20036;-81
2021/01/16 07:36:12;;;;;;;18.13;10.30;;;;;;;;;;5097216;28;20480;-80
2021/01/16 07:38:39;;;;;;;19.35;10.63;;;;;;;;;;5089407;28;20100;-80
2021/01/16 07:41:09;;;;;;;18.80;10.60;;;;;;;;;;5104128;28;20032;-81
2021/01/16 07:43:44;;;;;;;19.50;10.80;;;;;;;;;;5094505;28;20062;-80
2021/01/16 07:46:11;;;;;;;17.92;10.10;;;;;;;;;;5102723;28;20403;-82
2021/01/16 07:48:46;;;;;;;19.27;10.32;;;;;;;;;;5094814;28;20035;-81
2021/01/16 07:51:12;;;;;;;20.23;10.75;;;;;;;;;;5091060;28;20336;-81
2021/01/16 07:53:43;;;;;;;22.90;13.32;;;;;;;;;;5093327;28;20020;-81
2021/01/16 07:56:22;;;;;;;21.00;11.20;;;;;;;;;;5088407;28;20031;-83
2021/01/16 07:59:07;;;;;;;22.27;11.70;;;;;;;;;;5079839;28;20032;-82
2021/01/16 08:01:50;;;;;;;24.25;11.60;;;;;;;;;;5084287;28;20068;-81
2021/01/16 08:04:19;;;;;;;23.10;14.10;;;;;;;;;;5096316;28;20077;-81
2021/01/16 08:07:04;;;;;;;24.10;13.38;;;;;;;;;;5093312;28;20099;-82
2021/01/16 08:09:49;;;;;;;20.15;12.13;;;;;;;;;;5096159;28;20043;-81
2021/01/16 08:12:16;;;;;;;23.42;12.82;;;;;;;;;;5096794;28;20032;-81
2021/01/16 08:14:43;;;;;;;27.85;14.90;;;;;;;;;;5097522;28;20064;-81
2021/01/16 08:17:19;;;;;;;22.65;13.20;;;;;;;;;;5091733;28;20027;-81
2021/01/16 08:19:55;;;;;;;21.63;13.57;;;;;;;;;;5097665;28;20494;-81
2021/01/16 08:22:21;;;;;;;21.70;11.40;;;;;;;;;;5089711;28;20046;-81
2021/01/16 08:25:02;;;;;;;25.83;13.57;;;;;;;;;;5095649;28;20041;-81
2021/01/16 08:27:29;;;;;;;24.25;12.55;;;;;;;;;;5087733;28;20021;-82
2021/01/16 08:29:55;;;;;;;21.13;12.05;;;;;;;;;;5091096;28;20061;-81
2021/01/16 08:32:21;;;;;;;23.35;12.30;;;;;;;;;;5102196;28;20024;-81
2021/01/16 08:34:52;;;;;;;20.30;11.10;;;;;;;;;;5103126;28;20028;-81
2021/01/16 08:37:31;;;;;;;23.55;13.05;;;;;;;;;;5084320;28;20025;-81
2021/01/16 08:39:58;;;;;;;25.30;13.20;;;;;;;;;;5085718;28;20032;-81
2021/01/16 08:42:25;;;;;;;23.77;13.02;;;;;;;;;;5085610;28;20031;-81
2021/01/16 08:44:55;;;;;;;24.58;13.45;;;;;;;;;;5086876;28;20039;-81
2021/01/16 08:47:21;;;;;;;25.42;14.88;;;;;;;;;;5089035;28;20032;-81
2021/01/16 08:49:47;;;;;;;44.00;15.30;;;;;;;;;;5091595;28;20123;-82
2021/01/16 08:52:13;;;;;;;29.58;15.23;;;;;;;;;;5094170;28;20027;-81
2021/01/16 08:54:57;;;;;;;28.50;14.50;;;;;;;;;;5089152;28;20036;-80
2021/01/16 08:57:28;;;;;;;24.42;13.15;;;;;;;;;;5086893;28;20047;-82
2021/01/16 08:59:54;;;;;;;24.73;13.80;;;;;;;;;;5084259;28;20415;-81
2021/01/16 09:02:20;;;;;;;25.88;14.20;;;;;;;;;;5081013;28;20024;-80
2021/01/16 09:04:46;;;;;;;26.42;14.07;;;;;;;;;;5092285;28;20107;-81
2021/01/16 09:07:13;;;;;;;26.40;14.25;;;;;;;;;;5080631;28;20027;-81
2021/01/16 09:09:40;;;;;;;25.33;14.43;;;;;;;;;;5080819;28;20437;-81
2021/01/16 09:12:10;;;;;;;26.48;14.77;;;;;;;;;;5083224;28;20078;-81
2021/01/16 09:14:38;;;;;;;18.58;11.30;;;;;;;;;;5082808;28;20021;-81
2021/01/16 09:17:20;;;;;;;24.95;14.50;;;;;;;;;;5088080;28;20030;-81
2021/01/16 09:20:04;;;;;;;26.17;14.35;;;;;;;;;;5097232;28;20024;-81
2021/01/16 09:22:32;;;;;;;29.48;15.38;;;;;;;;;;5086646;28;20032;-78
2021/01/16 09:25:17;;;;;;;25.98;14.32;;;;;;;;;;5091112;28;20028;-82
2021/01/16 09:27:46;;;;;;;27.95;13.52;;;;;;;;;;5081267;28;20065;-82
2021/01/16 09:30:20;;;;;;;26.95;14.15;;;;;;;;;;5084822;28;20046;-82
2021/01/16 09:32:46;;;;;;;24.52;14.00;;;;;;;;;;5088182;28;20392;-80
2021/01/16 09:35:12;;;;;;;26.45;12.82;;;;;;;;;;5080093;28;20025;-81
2021/01/16 09:37:38;;;;;;;21.67;12.52;;;;;;;;;;5083392;28;20063;-82
2021/01/16 09:42:22;;;;;;;22.55;12.27;;;;;;;;;;5090227;28;20402;-81
2021/01/16 09:44:52;;;;;;;26.35;14.23;;;;;;;;;;5066376;28;20032;-83
2021/01/16 09:47:27;;;;;;;24.90;14.23;;;;;;;;;;5083299;28;20119;-82
2021/01/16 09:50:08;;;;;;;25.38;14.27;;;;;;;;;;5074460;28;20020;-81
2021/01/16 09:52:34;;;;;;;23.38;12.98;;;;;;;;;;5074180;28;20052;-80
2021/01/16 09:55:00;;;;;;;21.45;12.55;;;;;;;;;;5074086;28;20032;-80
2021/01/16 09:57:33;;;;;;;25.70;14.00;;;;;;;;;;5077955;28;20028;-80
2021/01/16 10:00:15;;;;;;;28.35;13.63;;;;;;;;;;5066069;28;20033;-80
2021/01/16 10:02:45;;;;;;;25.73;13.82;;;;;;;;;;5070008;28;20029;-80
2021/01/16 10:05:15;;;;;;;26.92;14.20;;;;;;;;;;5073402;28;20013;-80
2021/01/16 10:07:43;;;;;;;25.33;13.93;;;;;;;;;;5075110;28;20017;-80
2021/01/16 10:10:19;;;;;;;24.63;13.18;;;;;;;;;;5079482;28;20407;-82
2021/01/16 10:12:48;;;;;;;23.00;12.07;;;;;;;;;;5081576;28;20500;-82
2021/01/16 10:15:18;;;;;;;23.48;12.48;;;;;;;;;;5077514;28;20028;-83
2021/01/16 10:17:45;;;;;;;26.02;12.85;;;;;;;;;;5078720;28;20563;-83
2021/01/16 10:20:13;;;;;;;22.15;13.70;;;;;;;;;;5081059;28;20035;-82
2021/01/16 10:22:41;;;;;;;31.65;16.10;;;;;;;;;;5076563;28;20108;-82
2021/01/16 10:25:12;;;;;;;19.52;12.07;;;;;;;;;;5082847;28;20036;-83
2021/01/16 10:27:49;;;;;;;22.77;12.23;;;;;;;;;;5078819;28;20029;-83
2021/01/16 10:32:34;;;;;;;18.35;11.40;;;;;;;;;;5075939;28;20362;-82
2021/01/16 10:35:00;;;;;;;17.98;11.15;;;;;;;;;;5060732;28;20047;-82
2021/01/16 10:37:37;;;;;;;20.23;11.63;;;;;;;;;;5087425;28;20036;-83
2021/01/16 10:40:10;;;;;;;20.33;12.43;;;;;;;;;;5077308;28;20040;-82
2021/01/16 10:42:43;;;;;;;15.98;10.73;;;;;;;;;;5081420;28;20017;-84
2021/01/16 10:45:10;;;;;;;17.73;11.20;;;;;;;;;;5083413;28;20476;-83
2021/01/16 10:47:41;;;;;;;17.65;11.90;;;;;;;;;;5048216;28;20035;-83
2021/01/16 10:50:27;;;;;;;19.30;12.02;;;;;;;;;;5054557;28;20045;-83
2021/01/16 10:53:01;;;;;;;16.65;10.07;;;;;;;;;;5071211;28;20021;-80
2021/01/16 10:55:50;;;;;;;17.55;10.00;;;;;;;;;;5087201;28;20095;-83
2021/01/16 10:58:21;;;;;;;14.35;8.40;;;;;;;;;;5086407;28;20024;-83
2021/01/16 11:00:53;;;;;;;18.20;10.45;;;;;;;;;;5075405;28;20036;-79
2021/01/16 11:03:19;;;;;;;14.68;9.23;;;;;;;;;;5081316;28;20024;-84
2021/01/16 11:05:48;;;;;;;15.13;8.20;;;;;;;;;;5082512;28;20110;-83
2021/01/16 11:08:19;;;;;;;10.25;6.32;;;;;;;;;;5082778;28;20028;-83
2021/01/16 11:10:47;;;;;;;12.02;7.05;;;;;;;;;;5083054;28;20029;-83
2021/01/16 11:13:17;;;;;;;9.10;6.07;;;;;;;;;;5083573;28;20066;-83
2021/01/16 11:15:44;;;;;;;11.23;6.80;;;;;;;;;;5084729;28;20024;-84
2021/01/16 11:18:25;;;;;;;8.88;5.28;;;;;;;;;;5083219;28;20028;-83
2021/01/16 11:20:56;;;;;;;10.50;6.32;;;;;;;;;;5076931;28;20068;-83
2021/01/16 11:23:28;;;;;;;11.73;6.35;;;;;;;;;;5072060;28;20016;-83
2021/01/16 11:25:54;;;;;;;7.90;5.53;;;;;;;;;;5077914;28;20074;-83
2021/01/16 11:28:21;;;;;;;9.85;6.15;;;;;;;;;;5078506;28;20053;-83
2021/01/16 11:30:48;;;;;;;11.20;6.35;;;;;;;;;;5082416;28;20036;-83
2021/01/16 11:33:16;;;;;;;10.48;5.88;;;;;;;;;;5073522;28;20017;-85
2021/01/16 11:35:43;;;;;;;28.25;13.25;;;;;;;;;;5058887;28;20354;-83
2021/01/16 11:38:28;;;;;;;15.18;8.18;;;;;;;;;;5076558;28;20020;-83
2021/01/16 11:40:53;;;;;;;11.07;5.93;;;;;;;;;;5075922;28;20047;-84
2021/01/16 11:43:25;;;;;;;8.20;4.80;;;;;;;;;;5066660;28;20065;-84
2021/01/16 11:46:00;;;;;;;12.77;7.20;;;;;;;;;;5050084;28;20610;-83
2021/01/16 11:48:26;;;;;;;14.93;8.10;;;;;;;;;;5070285;28;20036;-84
2021/01/16 11:53:10;;;;;;;15.52;8.85;;;;;;;;;;5126195;27;20406;-83
2021/01/16 11:55:37;;;;;;;11.27;7.22;;;;;;;;;;5102018;28;20044;-83
2021/01/16 11:58:03;;;;;;;15.63;9.15;;;;;;;;;;5100037;28;20514;-83
2021/01/16 12:00:30;;;;;;;11.55;6.97;;;;;;;;;;5108500;22;20017;-81
2021/01/16 12:02:57;;;;;;;11.60;7.10;;;;;;;;;;5088953;28;20043;-81
2021/01/16 12:05:23;;;;;;;13.93;8.95;;;;;;;;;;5099902;28;20025;-84
2021/01/16 12:07:53;;;;;;;17.25;8.73;;;;;;;;;;5079622;28;20035;-83
2021/01/16 12:10:20;;;;;;;38.72;20.85;;;;;;;;;;5089669;28;20039;-84
2021/01/16 12:12:46;;;;;;;26.02;14.70;;;;;;;;;;5085869;28;20056;-82
2021/01/16 12:15:21;;;;;;;19.63;10.00;;;;;;;;;;5083082;28;20021;-83
2021/01/16 12:17:48;;;;;;;15.00;9.25;;;;;;;;;;5082485;28;20499;-83
2021/01/16 12:20:17;;;;;;;40.35;19.63;;;;;;;;;;5096812;28;20032;-83
2021/01/16 12:22:44;;;;;;;32.38;17.80;;;;;;;;;;5078752;28;20036;-84
2021/01/16 12:25:11;;;;;;;19.58;11.10;;;;;;;;;;5078814;28;20025;-83
2021/01/16 12:27:48;;;;;;;14.88;8.88;;;;;;;;;;5079675;28;20093;-83
2021/01/16 12:32:37;;;;;;;13.02;7.63;;;;;;;;;;5079598;27;20430;-83
2021/01/16 12:37:25;;;;;;;13.65;8.65;;;;;;;;;;5078502;28;20345;-83
2021/01/16 12:39:51;;;;;;;19.13;10.77;;;;;;;;;;5037795;28;20045;-83
2021/01/16 12:42:17;;;;;;;13.52;8.20;;;;;;;;;;5037717;28;20068;-83
2021/01/16 12:44:43;;;;;;;13.60;7.60;;;;;;;;;;5019344;28;20029;-83
2021/01/16 12:47:14;;;;;;;19.10;10.35;;;;;;;;;;5026025;28;20048;-83
2021/01/16 12:49:40;;;;;;;15.95;9.55;;;;;;;;;;5041854;28;20030;-84
2021/01/16 12:52:07;;;;;;;17.08;10.32;;;;;;;;;;5036484;28;20025;-85
2021/01/16 12:54:33;;;;;;;14.88;8.82;;;;;;;;;;5031303;28;20108;-84
2021/01/16 12:56:59;;;;;;;15.70;8.48;;;;;;;;;;5032640;28;20068;-84
2021/01/16 12:59:25;;;;;;;13.30;8.73;;;;;;;;;;5034041;28;20034;-83
2021/01/16 13:01:51;;;;;;;14.07;8.85;;;;;;;;;;5038421;28;20029;-83
2021/01/16 13:04:19;;;;;;;13.02;8.10;;;;;;;;;;5038563;28;20034;-83
2021/01/16 13:06:45;;;;;;;15.30;7.78;;;;;;;;;;5040556;28;20053;-83
2021/01/16 13:09:13;;;;;;;13.13;8.05;;;;;;;;;;5037316;28;20041;-83
2021/01/16 13:11:39;;;;;;;15.82;9.73;;;;;;;;;;5043993;28;20037;-83
2021/01/16 13:14:06;;;;;;;15.85;8.82;;;;;;;;;;5038244;28;20025;-83
2021/01/16 13:16:43;;;;;;;14.00;7.45;;;;;;;;;;5035487;28;20068;-83
2021/01/16 13:19:10;;;;;;;13.10;7.57;;;;;;;;;;5036279;28;21475;-83
2021/01/16 13:21:36;;;;;;;14.63;8.45;;;;;;;;;;5045807;28;20076;-83
2021/01/16 13:24:03;;;;;;;14.30;7.43;;;;;;;;;;5023382;28;20049;-83
2021/01/16 13:26:38;;;;;;;14.70;7.93;;;;;;;;;;5028522;28;20034;-83
2021/01/16 13:29:06;;;;;;;15.45;8.30;;;;;;;;;;5021603;28;20036;-83
2021/01/16 13:31:32;;;;;;;14.02;8.23;;;;;;;;;;5029331;28;20030;-85
2021/01/16 13:33:58;;;;;;;15.43;8.63;;;;;;;;;;5024311;28;20045;-85
2021/01/16 13:36:25;;;;;;;12.88;7.60;;;;;;;;;;5030101;28;20034;-82
2021/01/16 13:38:53;;;;;;;11.82;7.05;;;;;;;;;;5032880;28;20072;-83
2021/01/16 13:41:19;;;;;;;15.38;8.15;;;;;;;;;;5037109;28;20619;-84
2021/01/16 13:43:46;;;;;;;14.70;7.90;;;;;;;;;;5030312;28;20557;-83
2021/01/16 13:46:13;;;;;;;13.73;8.40;;;;;;;;;;5042678;28;20408;-83
2021/01/16 13:48:40;;;;;;;14.85;8.60;;;;;;;;;;5023957;28;20463;-83
2021/01/16 13:51:26;;;;;;;14.38;8.88;;;;;;;;;;5024842;28;20076;-83
2021/01/16 13:53:53;;;;;;;18.40;10.07;;;;;;;;;;5027218;28;20039;-83
2021/01/16 13:56:20;;;;;;;17.45;10.18;;;;;;;;;;5015714;28;20393;-83
2021/01/16 13:58:46;;;;;;;17.02;10.45;;;;;;;;;;5029222;28;20053;-83
2021/01/16 14:01:12;;;;;;;19.90;10.88;;;;;;;;;;5019595;28;20076;-83
2021/01/16 14:03:39;;;;;;;19.30;10.32;;;;;;;;;;5027170;28;20025;-84
2021/01/16 14:06:05;;;;;;;15.35;8.80;;;;;;;;;;5019578;28;20025;-83
2021/01/16 14:08:31;;;;;;;18.50;9.77;;;;;;;;;;5019511;28;20109;-84
2021/01/16 14:11:01;;;;;;;16.17;9.75;;;;;;;;;;5020435;28;20026;-83
2021/01/16 14:13:35;;;;;;;15.75;9.38;;;;;;;;;;5002965;28;20048;-83
2021/01/16 14:16:04;;;;;;;15.55;9.15;;;;;;;;;;5014735;28;20026;-83
2021/01/16 14:18:31;;;;;;;17.33;9.60;;;;;;;;;;5018753;28;20029;-82
2021/01/16 14:20:58;;;;;;;18.60;10.13;;;;;;;;;;5012814;28;20030;-83
2021/01/16 14:23:34;;;;;;;22.67;12.40;;;;;;;;;;5012866;28;20046;-82
2021/01/16 14:26:20;;;;;;;11.57;7.20;;;;;;;;;;5003784;28;20036;-83
2021/01/16 14:28:48;;;;;;;22.25;11.93;;;;;;;;;;5002473;28;20038;-82
2021/01/16 14:31:16;;;;;;;20.30;11.20;;;;;;;;;;5019091;28;20045;-83
2021/01/16 14:33:42;;;;;;;20.23;10.60;;;;;;;;;;5017049;28;20034;-82
2021/01/16 14:36:19;;;;;;;19.63;11.68;;;;;;;;;;5021856;28;20829;-83
2021/01/16 14:38:45;;;;;;;22.20;11.48;;;;;;;;;;5015446;28;20022;-83
2021/01/16 14:41:11;;;;;;;31.00;14.63;;;;;;;;;;5015184;28;20038;-82
2021/01/16 14:43:38;;;;;;;21.92;11.93;;;;;;;;;;5018064;28;20033;-83
2021/01/16 14:46:04;;;;;;;18.90;11.43;;;;;;;;;;5019458;28;20038;-82
2021/01/16 14:48:30;;;;;;;14.80;9.30;;;;;;;;;;5017368;28;20061;-83
2021/01/16 14:51:03;;;;;;;20.65;11.60;;;;;;;;;;5023493;28;20030;-83
2021/01/16 14:53:34;;;;;;;19.15;10.40;;;;;;;;;;5018657;28;20490;-83
2021/01/16 14:56:05;;;;;;;23.67;9.80;;;;;;;;;;5017139;28;20037;-83
2021/01/16 14:58:31;;;;;;;20.63;12.20;;;;;;;;;;5018512;28;20033;-82
2021/01/16 15:00:57;;;;;;;19.70;10.60;;;;;;;;;;5021993;28;20025;-83
2021/01/16 15:03:34;;;;;;;18.60;9.38;;;;;;;;;;5020185;28;20042;-82
2021/01/16 15:06:00;;;;;;;23.05;10.43;;;;;;;;;;5016074;28;20026;-83
2021/01/16 15:08:26;;;;;;;20.17;10.68;;;;;;;;;;5018893;28;20026;-83
2021/01/16 15:13:10;;;;;;;20.98;10.77;;;;;;;;;;5114180;27;20362;-83
2021/01/16 15:15:36;;;;;;;24.35;11.88;;;;;;;;;;5100583;28;20081;-82
2021/01/16 15:18:04;;;;;;;16.38;9.52;;;;;;;;;;5102119;28;20034;-82
2021/01/16 15:22:49;;;;;;;14.68;8.57;;;;;;;;;;5116668;27;20384;-82
2021/01/16 15:25:15;;;;;;;16.38;8.55;;;;;;;;;;5121252;28;20036;-82
2021/01/16 15:27:41;;;;;;;16.65;10.27;;;;;;;;;;5083886;28;20030;-82
2021/01/16 15:30:07;;;;;;;17.73;10.68;;;;;;;;;;5101345;28;20493;-82
2021/01/16 15:34:52;;;;;;;13.27;8.45;;;;;;;;;;5067095;28;20354;-83
2021/01/16 15:37:18;;;;;;;15.93;9.63;;;;;;;;;;5068239;28;20075;-82
2021/01/16 15:42:03;;;;;;;18.98;10.07;;;;;;;;;;5078142;28;20419;-82
2021/01/16 15:44:30;;;;;;;18.83;9.35;;;;;;;;;;5072667;28;20037;-82
2021/01/16 15:46:59;;;;;;;15.77;8.75;;;;;;;;;;5072299;28;20029;-82
2021/01/16 15:49:27;;;;;;;20.00;9.95;;;;;;;;;;5057913;28;20075;-82
2021/01/16 15:52:01;;;;;;;18.63;10.45;;;;;;;;;;5079911;28;20571;-83
2021/01/16 15:54:29;;;;;;;18.02;10.57;;;;;;;;;;5070808;28;20024;-83
2021/01/16 15:56:55;;;;;;;21.30;11.20;;;;;;;;;;5069524;28;20084;-82
2021/01/16 15:59:21;;;;;;;21.42;12.32;;;;;;;;;;5066494;28;20587;-83
2021/01/16 16:01:47;;;;;;;20.85;11.32;;;;;;;;;;5072691;28;20050;-83
2021/01/16 16:04:13;;;;;;;25.92;14.57;;;;;;;;;;5058193;28;20028;-83
2021/01/16 16:06:40;;;;;;;23.83;14.15;;;;;;;;;;5073138;28;20088;-82
2021/01/16 16:09:06;;;;;;;22.25;12.85;;;;;;;;;;5058468;28;20032;-83
2021/01/16 16:11:33;;;;;;;21.35;13.25;;;;;;;;;;5054706;28;20059;-83
2021/01/16 16:14:00;;;;;;;18.65;10.10;;;;;;;;;;5056634;28;20029;-83
2021/01/16 16:16:25;;;;;;;22.65;12.32;;;;;;;;;;5071213;28;20029;-82
2021/01/16 16:18:52;;;;;;;20.45;11.63;;;;;;;;;;5075332;28;20024;-82
2021/01/16 16:21:18;;;;;;;24.50;13.18;;;;;;;;;;5048585;28;20033;-83
2021/01/16 16:23:44;;;;;;;22.33;13.48;;;;;;;;;;5067054;28;20029;-83
2021/01/16 16:26:11;;;;;;;18.70;10.85;;;;;;;;;;5067991;28;20086;-83
2021/01/16 16:28:37;;;;;;;20.05;11.43;;;;;;;;;;5065101;28;20053;-83
2021/01/16 16:31:07;;;;;;;24.00;12.85;;;;;;;;;;5060748;28;20029;-83
2021/01/16 16:33:33;;;;;;;22.42;11.95;;;;;;;;;;5055867;28;20032;-83
2021/01/16 16:35:59;;;;;;;23.08;12.13;;;;;;;;;;5066228;28;20509;-82
2021/01/16 16:38:25;;;;;;;31.65;16.10;;;;;;;;;;5049498;28;20025;-83
2021/01/16 16:40:51;;;;;;;28.42;15.32;;;;;;;;;;5060989;28;20028;-83
2021/01/16 16:43:18;;;;;;;28.85;16.48;;;;;;;;;;5049552;28;20024;-83
2021/01/16 16:45:45;;;;;;;28.55;17.45;;;;;;;;;;5047695;28;20032;-82
2021/01/16 16:48:12;;;;;;;34.35;19.70;;;;;;;;;;5047710;28;20070;-84
2021/01/16 16:50:39;;;;;;;30.23;19.20;;;;;;;;;;5061421;28;20029;-83
2021/01/16 16:53:06;;;;;;;32.60;17.85;;;;;;;;;;5039496;28;20032;-83
2021/01/16 16:55:33;;;;;;;29.58;15.85;;;;;;;;;;5044560;28;20044;-83
2021/01/16 16:57:59;;;;;;;33.22;19.33;;;;;;;;;;5051781;28;20032;-83
2021/01/16 17:00:26;;;;;;;28.10;16.80;;;;;;;;;;5032313;28;20028;-83
2021/01/16 17:02:52;;;;;;;28.02;16.15;;;;;;;;;;5049465;28;20033;-83
2021/01/16 17:05:19;;;;;;;25.77;15.65;;;;;;;;;;5035600;28;20039;-83
2021/01/16 17:07:49;;;;;;;32.67;17.55;;;;;;;;;;5047422;28;20443;-83
2021/01/16 17:10:15;;;;;;;30.90;15.82;;;;;;;;;;5049124;28;20029;-83
2021/01/16 17:12:41;;;;;;;27.50;14.63;;;;;;;;;;5052237;28;20153;-83
2021/01/16 17:15:09;;;;;;;31.42;16.67;;;;;;;;;;5052438;28;20029;-84
2021/01/16 17:17:35;;;;;;;32.50;17.35;;;;;;;;;;5047214;28;20032;-84
2021/01/16 17:20:03;;;;;;;34.63;19.50;;;;;;;;;;5037701;28;20029;-83
2021/01/16 17:22:29;;;;;;;34.75;17.90;;;;;;;;;;5034062;28;20458;-84
2021/01/16 17:24:55;;;;;;;31.58;16.73;;;;;;;;;;5033137;28;20071;-84
2021/01/16 17:27:21;;;;;;;34.13;17.63;;;;;;;;;;5049553;28;20026;-84
2021/01/16 17:29:48;;;;;;;33.33;19.20;;;;;;;;;;5053348;28;20033;-84
2021/01/16 17:32:17;;;;;;;31.88;17.50;;;;;;;;;;5069646;28;20025;-84
2021/01/16 17:34:46;;;;;;;36.88;19.90;;;;;;;;;;5043661;28;20029;-83
2021/01/16 17:37:12;;;;;;;35.85;18.25;;;;;;;;;;5059210;28;20024;-84
2021/01/16 17:39:38;;;;;;;37.50;20.30;;;;;;;;;;5065266;28;20095;-84
2021/01/16 17:42:08;;;;;;;38.88;21.67;;;;;;;;;;5047646;28;20029;-84
2021/01/16 17:44:34;;;;;;;36.72;20.98;;;;;;;;;;5048485;28;20055;-84
2021/01/16 17:47:00;;;;;;;38.08;19.70;;;;;;;;;;5041114;28;20032;-83
2021/01/16 17:49:26;;;;;;;39.35;19.13;;;;;;;;;;5027950;28;20041;-84
2021/01/16 17:51:52;;;;;;;34.90;19.10;;;;;;;;;;5054515;28;20035;-84
2021/01/16 17:54:18;;;;;;;39.15;19.98;;;;;;;;;;5037538;28;20025;-83
2021/01/16 17:56:44;;;;;;;37.17;22.05;;;;;;;;;;5048868;28;20063;-84
2021/01/16 17:59:10;;;;;;;41.58;22.88;;;;;;;;;;5060588;28;20101;-84
2021/01/16 18:14:55;;;;;;;51.17;25.85;;;;;;;;;;5016151;28;20485;-80
2021/01/16 18:23:31;;;;;;;47.95;26.55;;;;;;;;;;5076953;22;20045;-81
2021/01/16 18:39:35;;;;;;;49.92;26.60;;;;;;;;;;4969680;28;20435;-80
2021/01/16 18:42:49;;;;;;;;;;;;;;;;;;;;;
2021/01/16 18:45:38;;;;;;;54.50;28.48;;;;;;;;;;4960947;28;20037;-80
2021/01/16 19:03:38;;;;;;;47.55;23.67;;;;;;;;;;5694936;22;20052;-84
2021/01/16 19:20:41;;;;;;;49.65;26.90;;;;;;;;;;5253769;22;20535;-83
2021/01/16 19:23:07;;;;;;;54.35;30.35;;;;;;;;;;5058396;28;20032;-82
2021/01/16 19:25:33;;;;;;;40.58;23.55;;;;;;;;;;5075188;28;20029;-83
2021/01/16 19:27:59;;;;;;;36.22;20.50;;;;;;;;;;5082189;28;20392;-83
2021/01/16 19:30:26;;;;;;;39.58;19.70;;;;;;;;;;5080980;28;20024;-83
2021/01/16 19:32:52;;;;;;;45.67;22.08;;;;;;;;;;5081484;28;20425;-83
2021/01/16 19:35:18;;;;;;;40.28;21.58;;;;;;;;;;5076734;28;20107;-83
2021/01/16 19:37:45;;;;;;;37.88;19.58;;;;;;;;;;5078595;28;20085;-83
2021/01/16 19:40:12;;;;;;;35.78;18.17;;;;;;;;;;5079545;28;20028;-83
2021/01/16 19:42:42;;;;;;;36.03;18.05;;;;;;;;;;5075892;28;20032;-83
2021/01/16 19:45:08;;;;;;;33.33;16.58;;;;;;;;;;5074451;28;20165;-84
2021/01/16 19:47:33;;;;;;;38.55;19.83;;;;;;;;;;5075551;28;20036;-83
2021/01/16 19:50:00;;;;;;;40.08;20.98;;;;;;;;;;5057050;28;20032;-81
2021/01/16 19:52:26;;;;;;;38.42;19.75;;;;;;;;;;5076862;28;20039;-81
2021/01/16 19:54:53;;;;;;;31.58;17.65;;;;;;;;;;5056331;28;20090;-82
2021/01/16 19:57:19;;;;;;;32.00;17.48;;;;;;;;;;5075527;28;20080;-82
2021/01/16 19:59:44;;;;;;;41.67;21.55;;;;;;;;;;5074832;28;20036;-83
2021/01/16 20:02:11;;;;;;;35.00;20.13;;;;;;;;;;5074903;28;20033;-83
2021/01/16 20:04:37;;;;;;;35.35;18.98;;;;;;;;;;5073135;28;20052;-83
2021/01/16 20:07:04;;;;;;;32.33;15.57;;;;;;;;;;5055702;28;20040;-83
2021/01/16 20:09:30;;;;;;;36.10;20.33;;;;;;;;;;5071271;28;21402;-82
2021/01/16 20:11:56;;;;;;;37.65;20.98;;;;;;;;;;5057600;28;20036;-82
2021/01/16 20:14:22;;;;;;;38.05;20.30;;;;;;;;;;5074413;28;20064;-83
2021/01/16 20:16:54;;;;;;;37.42;19.67;;;;;;;;;;5053715;28;20101;-83
2021/01/16 20:19:21;;;;;;;33.33;17.20;;;;;;;;;;5074308;28;20059;-83
2021/01/16 20:21:47;;;;;;;39.90;20.75;;;;;;;;;;5056113;28;20033;-83
2021/01/16 20:24:13;;;;;;;28.70;16.00;;;;;;;;;;5074239;28;20032;-82
2021/01/16 20:26:40;;;;;;;34.20;18.15;;;;;;;;;;5056739;28;20033;-82
2021/01/16 20:29:08;;;;;;;39.13;21.88;;;;;;;;;;5060316;28;20024;-83
2021/01/16 20:31:34;;;;;;;37.22;19.80;;;;;;;;;;5077582;28;20084;-82
2021/01/16 20:34:00;;;;;;;36.85;20.00;;;;;;;;;;5078575;28;20029;-82
2021/01/16 20:36:26;;;;;;;36.35;17.38;;;;;;;;;;5054548;28;20670;-82
2021/01/16 20:38:52;;;;;;;33.20;17.10;;;;;;;;;;5078768;28;20031;-82
2021/01/16 20:41:18;;;;;;;31.77;17.27;;;;;;;;;;5079108;28;20036;-82
2021/01/16 20:43:49;;;;;;;36.67;19.83;;;;;;;;;;5080267;28;20035;-82
2021/01/16 20:46:19;;;;;;;29.30;16.58;;;;;;;;;;5076629;28;20050;-82
2021/01/16 20:51:03;;;;;;;35.28;17.48;;;;;;;;;;5083320;28;20431;-82
2021/01/16 20:53:29;;;;;;;35.10;18.98;;;;;;;;;;5067922;28;20090;-82
2021/01/16 20:55:55;;;;;;;33.92;18.58;;;;;;;;;;5050144;28;20392;-82
2021/01/16 20:58:21;;;;;;;51.08;22.85;;;;;;;;;;5057971;28;20473;-82
2021/01/16 21:03:05;;;;;;;63.30;29.02;;;;;;;;;;5081080;27;20938;-83
2021/01/16 21:05:31;;;;;;;76.03;33.83;;;;;;;;;;5062812;28;20028;-82
2021/01/16 21:07:57;;;;;;;86.78;36.78;;;;;;;;;;5080994;28;20021;-82
2021/01/16 21:10:23;;;;;;;65.30;32.63;;;;;;;;;;5076876;28;20032;-82
2021/01/16 21:12:53;;;;;;;65.43;28.75;;;;;;;;;;5078157;28;20032;-82
2021/01/16 21:15:19;;;;;;;71.40;32.72;;;;;;;;;;5046486;28;20036;-82
2021/01/16 21:17:45;;;;;;;76.85;33.70;;;;;;;;;;5082372;28;20044;-82
2021/01/16 21:22:31;;;;;;;57.13;28.13;;;;;;;;;;5058100;28;20404;-82
2021/01/16 21:27:33;;;;;;;45.75;24.40;;;;;;;;;;5086188;27;20410;-82
2021/01/16 21:29:59;;;;;;;55.35;26.27;;;;;;;;;;5067885;28;20025;-83
2021/01/16 21:32:26;;;;;;;48.35;24.13;;;;;;;;;;5084035;28;20025;-82
2021/01/16 21:34:53;;;;;;;49.20;25.77;;;;;;;;;;5084778;28;20027;-82
2021/01/16 21:37:19;;;;;;;36.50;21.40;;;;;;;;;;5090381;28;20028;-82
2021/01/16 21:39:45;;;;;;;32.55;17.50;;;;;;;;;;5084257;28;20078;-83
2021/01/16 21:42:11;;;;;;;32.20;17.38;;;;;;;;;;5087978;28;20048;-82
2021/01/16 21:44:37;;;;;;;33.42;16.70;;;;;;;;;;5091864;28;20078;-83
2021/01/16 21:47:03;;;;;;;31.60;16.98;;;;;;;;;;5095493;28;20472;-83
2021/01/16 21:49:29;;;;;;;31.50;16.98;;;;;;;;;;5082395;28;20536;-83